Time;durP1;ratioP1;P1;durP2;ratioP2;P2;SDS_P1;SDS_P2;PMS_P1;PMS_P2;Temp;Humidity;BMP_temperature;BMP_pressure;BME280_temperature;BME280_humidity;BME280_pressure;Samples;Min_cycle;Max_cycle;Signal;HPM_P1;HPM_P2
2024/04/12 00:01:46;;;;;;;7.38;6.13;;;9.80;60.30;;;5.14;100.00;96984.84;5369836;26;20004;-57
2024/04/12 00:04:20;;;;;;;12.50;6.68;;;9.80;60.30;;;5.16;100.00;96988.06;5367702;26;20833;-54
2024/04/12 00:06:59;;;;;;;11.65;8.02;;;9.70;60.40;;;5.15;100.00;96985.66;5367291;26;20007;-53
2024/04/12 00:09:29;;;;;;;13.93;8.10;;;9.70;60.40;;;5.10;100.00;96987.03;5365770;26;20015;-54
2024/04/12 00:11:55;;;;;;;16.73;8.95;;;9.70;60.30;;;5.10;100.00;96991.50;5368696;26;20022;-54
2024/04/12 00:14:23;;;;;;;10.48;7.82;;;9.70;60.50;;;5.09;100.00;96987.25;5371030;26;20451;-53
2024/04/12 00:16:51;;;;;;;14.57;7.88;;;9.70;60.70;;;5.10;100.00;96994.94;5367287;26;20000;-52
2024/04/12 00:19:23;;;;;;;11.00;7.63;;;9.70;60.80;;;5.10;100.00;96999.44;5361507;26;20015;-56
2024/04/12 00:21:57;;;;;;;13.68;8.30;;;9.70;60.90;;;5.11;100.00;96993.16;5360341;26;20884;-55
2024/04/12 00:24:29;;;;;;;13.70;8.05;;;9.70;60.80;;;5.10;100.00;96997.59;5361690;26;20085;-54
2024/04/12 00:26:55;;;;;;;11.10;8.55;;;9.70;60.80;;;5.09;100.00;96995.16;5365352;26;20358;-53
2024/04/12 00:29:36;;;;;;;18.15;9.80;;;9.70;60.80;;;5.08;100.00;97001.47;5367275;26;20073;-55
2024/04/12 00:32:15;;;;;;;15.20;9.00;;;9.60;60.90;;;5.07;100.00;97000.63;5364234;26;20039;-54
2024/04/12 00:34:47;;;;;;;12.15;8.40;;;9.70;61.10;;;5.05;100.00;97002.66;5372344;26;20019;-53
2024/04/12 00:37:17;;;;;;;12.68;8.82;;;9.60;60.90;;;5.01;100.00;96993.47;5361051;26;20034;-50
2024/04/12 00:39:49;;;;;;;13.18;8.52;;;9.60;61.70;;;4.97;100.00;96996.72;5365962;26;20012;-55
2024/04/12 00:42:31;;;;;;;15.65;8.90;;;9.60;60.90;;;4.90;100.00;96990.59;5370379;26;20027;-55
2024/04/12 00:45:02;;;;;;;14.45;8.75;;;9.60;60.90;;;4.84;100.00;96994.81;5363466;26;20502;-55
2024/04/12 00:47:28;;;;;;;16.15;8.60;;;9.60;60.80;;;4.85;100.00;96988.50;5368867;26;20011;-54
2024/04/12 00:49:56;;;;;;;12.80;9.65;;;9.50;60.90;;;4.87;100.00;96984.69;5370634;26;20022;-55
2024/04/12 00:52:28;;;;;;;14.95;8.77;;;9.50;61.10;;;4.87;100.00;96987.31;5368527;26;20016;-53
2024/04/12 00:55:08;;;;;;;14.63;9.00;;;9.50;61.20;;;4.86;100.00;96998.91;5367279;26;20439;-52
2024/04/12 00:57:40;;;;;;;13.65;8.52;;;9.50;61.20;;;4.74;100.00;96989.88;5368477;26;20454;-52
2024/04/12 01:00:17;;;;;;;10.27;8.05;;;9.50;61.10;;;4.66;100.00;96989.22;5361564;26;20022;-56
2024/04/12 01:02:47;;;;;;;15.18;8.75;;;9.40;61.00;;;4.52;100.00;96989.13;5370353;26;20022;-50
2024/04/12 01:05:19;;;;;;;12.23;9.02;;;9.30;60.90;;;4.54;100.00;96989.72;5355239;26;20016;-50
2024/04/12 01:07:50;;;;;;;12.33;8.80;;;9.30;61.20;;;4.51;100.00;96987.50;5368177;26;20027;-53
2024/04/12 01:10:25;;;;;;;15.35;9.38;;;9.20;61.10;;;4.47;100.00;96986.22;5366887;26;20120;-52
2024/04/12 01:12:55;;;;;;;13.18;8.98;;;9.20;61.40;;;4.49;100.00;96986.88;5357186;26;20391;-53
2024/04/12 01:15:36;;;;;;;13.40;9.45;;;9.20;61.30;;;4.43;100.00;96994.72;5369284;26;20007;-56
2024/04/12 01:18:10;;;;;;;13.90;10.05;;;9.10;61.30;;;4.40;100.00;96990.66;5360129;26;20131;-50
2024/04/12 01:20:36;;;;;;;13.45;8.95;;;9.10;61.40;;;4.35;100.00;96991.19;5367134;26;20040;-53
2024/04/12 01:23:03;;;;;;;14.23;9.75;;;9.00;61.40;;;4.30;100.00;96995.44;5359937;26;20005;-51
2024/04/12 01:25:31;;;;;;;13.65;9.60;;;9.00;61.60;;;4.26;100.00;96989.72;5366595;26;20500;-54
2024/04/12 01:27:57;;;;;;;11.40;7.95;;;8.90;61.70;;;4.20;100.00;96990.50;5363930;26;20080;-52
2024/04/12 01:30:24;;;;;;;16.15;8.57;;;8.90;61.70;;;4.18;100.00;96989.84;5370854;26;20007;-57
2024/04/12 01:32:50;;;;;;;15.68;8.82;;;8.90;61.80;;;4.22;100.00;96998.19;5362814;26;20108;-54
2024/04/12 01:35:24;;;;;;;11.90;7.95;;;8.90;62.00;;;4.23;100.00;96991.91;5369269;26;20508;-54
2024/04/12 01:37:51;;;;;;;11.77;7.70;;;8.90;62.30;;;4.13;100.00;96998.31;5365075;26;20060;-53
2024/04/12 01:40:22;;;;;;;13.38;8.85;;;8.90;62.20;;;4.12;100.00;96996.69;5363337;26;20015;-55
2024/04/12 01:42:48;;;;;;;11.55;8.13;;;8.90;62.20;;;4.10;100.00;96997.88;5364745;26;20019;-53
2024/04/12 01:45:14;;;;;;;16.85;8.80;;;8.80;62.00;;;4.06;100.00;96986.91;5362468;26;20012;-55
2024/04/12 01:47:47;;;;;;;13.13;8.30;;;8.80;62.00;;;4.01;100.00;96989.31;5367895;26;20003;-54
2024/04/12 01:50:21;;;;;;;14.15;8.88;;;8.80;62.20;;;3.98;100.00;96994.97;5367086;26;20539;-54
2024/04/12 01:52:55;;;;;;;16.10;9.80;;;8.70;62.20;;;4.04;100.00;97001.28;5367270;26;20024;-52
2024/04/12 01:55:24;;;;;;;17.48;9.57;;;8.70;62.50;;;4.04;100.00;96996.00;5362174;26;20000;-51
2024/04/12 01:57:55;;;;;;;14.93;9.10;;;8.70;62.60;;;3.99;100.00;97001.84;5350516;26;20004;-52
2024/04/12 02:00:23;;;;;;;13.55;8.57;;;8.70;62.60;;;3.96;100.00;96998.78;5363784;26;20004;-49
2024/04/12 02:02:59;;;;;;;12.80;9.05;;;8.70;62.50;;;3.87;100.00;97001.53;5369021;26;20015;-53
2024/04/12 02:05:34;;;;;;;11.80;8.70;;;8.70;63.30;;;3.87;100.00;97004.16;5359041;26;20450;-53
2024/04/12 02:08:16;;;;;;;11.82;8.57;;;8.60;62.50;;;3.86;100.00;97005.19;5362083;26;20059;-53
2024/04/12 02:10:48;;;;;;;14.87;9.23;;;8.60;62.70;;;3.89;100.00;97009.25;5368907;26;20007;-50
2024/04/12 02:13:17;;;;;;;14.13;9.50;;;8.60;62.60;;;3.85;100.00;97010.63;5363034;26;20254;-51
2024/04/12 02:15:49;;;;;;;14.35;9.18;;;8.50;62.60;;;3.88;100.00;97015.53;5370068;26;20478;-52
2024/04/12 02:18:19;;;;;;;13.48;9.13;;;8.50;62.90;;;3.83;100.00;97008.19;5364905;26;20004;-53
2024/04/12 02:20:46;;;;;;;13.68;9.32;;;8.50;62.70;;;3.84;100.00;97014.28;5361196;26;20411;-53
2024/04/12 02:23:13;;;;;;;14.38;9.02;;;8.50;62.80;;;3.82;100.00;97011.81;5367425;26;20363;-54
2024/04/12 02:25:43;;;;;;;16.92;10.07;;;8.50;62.90;;;3.81;100.00;97007.53;5369028;26;20068;-55
2024/04/12 02:28:13;;;;;;;15.80;10.18;;;8.50;63.00;;;3.79;100.00;97004.31;5365255;26;20061;-52
2024/04/12 02:30:46;;;;;;;18.88;11.27;;;8.50;63.00;;;3.76;100.00;97009.94;5369976;26;20015;-52
2024/04/12 02:33:16;;;;;;;;;;;8.50;63.20;;;3.73;100.00;97005.03;5370451;26;20008;-56
2024/04/12 02:35:47;;;;;;;20.90;11.20;;;8.40;62.60;;;3.71;100.00;97001.78;5371015;26;20280;-51
2024/04/12 02:38:20;;;;;;;20.90;12.57;;;8.40;62.80;;;3.72;100.00;97009.47;5368238;26;20359;-50
2024/04/12 02:40:48;;;;;;;19.27;12.35;;;8.40;63.10;;;3.75;100.00;97007.47;5367287;26;20110;-53
2024/04/12 02:43:17;;;;;;;19.95;12.13;;;8.40;63.30;;;3.74;100.00;97009.31;5363473;26;20110;-56
2024/04/12 02:45:52;;;;;;;20.95;12.05;;;8.40;63.40;;;3.74;100.00;97014.56;5342018;26;20011;-54
2024/04/12 02:48:22;;;;;;;20.48;12.40;;;8.40;63.80;;;3.74;100.00;97005.84;5369266;26;20020;-56
2024/04/12 02:50:53;;;;;;;17.58;10.93;;;8.40;63.60;;;3.71;100.00;97013.13;5367043;26;20036;-57
2024/04/12 02:53:30;;;;;;;22.02;11.80;;;8.40;63.50;;;3.74;100.00;97006.66;5397680;26;20004;-54
2024/04/12 02:56:11;;;;;;;14.75;10.55;;;8.40;63.80;;;3.80;100.00;97008.56;5361612;26;20011;-55
2024/04/12 02:58:40;;;;;;;16.40;10.60;;;8.40;63.80;;;3.79;100.00;97003.47;5366855;26;20366;-53
2024/04/12 03:01:23;;;;;;;16.67;10.63;;;8.40;63.60;;;3.71;100.00;97007.84;5368933;26;20434;-52
2024/04/12 03:03:58;;;;;;;16.58;10.70;;;8.40;63.80;;;3.73;100.00;97002.41;5372173;26;20370;-53
2024/04/12 03:06:32;;;;;;;18.90;11.20;;;8.40;63.60;;;3.64;100.00;97006.16;5372028;26;20012;-54
2024/04/12 03:09:02;;;;;;;20.60;11.20;;;8.40;63.60;;;3.66;100.00;97006.78;5365729;26;20023;-54
2024/04/12 03:11:40;;;;;;;17.48;11.25;;;8.40;63.60;;;3.68;100.00;97008.22;5368656;26;20022;-51
2024/04/12 03:14:12;;;;;;;19.88;11.75;;;8.40;63.70;;;3.70;100.00;97014.13;5366849;26;19999;-55
2024/04/12 03:16:42;;;;;;;20.90;11.77;;;8.40;63.80;;;3.68;100.00;97020.59;5363073;26;20018;-56
2024/04/12 03:19:10;;;;;;;20.13;11.07;;;8.30;63.70;;;3.59;100.00;97016.44;5371320;26;20004;-54
2024/04/12 03:21:40;;;;;;;20.20;11.18;;;8.30;63.70;;;3.59;100.00;97019.88;5364850;26;20019;-57
2024/04/12 03:24:09;;;;;;;20.63;11.45;;;8.40;63.80;;;3.64;100.00;97021.97;5367419;26;20362;-56
2024/04/12 03:26:36;;;;;;;18.02;11.10;;;8.30;63.70;;;3.61;100.00;97024.97;5366270;26;20379;-57
2024/04/12 03:29:06;;;;;;;17.15;11.45;;;8.30;63.70;;;3.59;100.00;97021.69;5367041;26;20026;-55
2024/04/12 03:31:38;;;;;;;19.05;11.57;;;8.30;63.70;;;3.54;100.00;97018.78;5364597;26;20036;-56
2024/04/12 03:34:08;;;;;;;21.35;11.30;;;8.30;63.90;;;3.48;100.00;97021.19;5364123;26;20012;-57
2024/04/12 03:42:06;;;;;;;20.95;10.18;;;8.20;63.80;;;3.38;100.00;97027.72;5371180;26;20008;-57
2024/04/12 03:44:36;;;;;;;23.08;11.15;;;8.20;63.80;;;3.35;100.00;97031.53;5372683;26;20531;-57
2024/04/12 03:47:08;;;;;;;20.52;10.75;;;8.10;63.70;;;3.29;100.00;97034.94;5369986;26;20019;-57
2024/04/12 03:49:39;;;;;;;17.52;10.40;;;8.10;63.90;;;3.27;100.00;97039.56;5368794;26;20023;-55
2024/04/12 03:52:11;;;;;;;16.13;10.38;;;8.10;63.80;;;3.24;100.00;97035.47;5370953;26;20058;-56
2024/04/12 03:54:37;;;;;;;;;;;8.00;63.80;;;3.20;100.00;97030.75;5367095;26;20007;-57
2024/04/12 03:57:07;;;;;;;18.23;10.38;;;8.00;63.50;;;3.17;100.00;97024.03;5369711;26;20288;-57
2024/04/12 03:59:35;;;;;;;17.83;11.70;;;7.90;63.50;;;3.13;100.00;97025.38;5366476;26;20082;-57
2024/04/12 04:02:08;;;;;;;18.70;11.38;;;7.90;63.80;;;3.11;100.00;97030.03;5369307;26;20055;-56
2024/04/12 04:04:44;;;;;;;21.45;11.68;;;7.90;63.80;;;3.09;100.00;97032.00;5363239;26;20506;-57
2024/04/12 04:07:15;;;;;;;21.02;10.80;;;7.90;64.10;;;3.07;100.00;97035.81;5370146;26;20003;-56
2024/04/12 04:09:43;;;;;;;23.88;12.40;;;7.80;64.00;;;3.05;100.00;97038.66;5371572;26;20490;-57
2024/04/12 04:12:14;;;;;;;18.63;10.57;;;7.80;64.10;;;3.05;100.00;97033.38;5376391;26;20049;-56
2024/04/12 04:14:48;;;;;;;20.08;11.35;;;7.80;64.20;;;3.06;100.00;97035.00;5371787;26;20022;-57
2024/04/12 04:17:15;;;;;;;26.75;12.15;;;7.80;64.30;;;3.04;100.00;97039.66;5368134;26;20016;-54
2024/04/12 04:19:42;;;;;;;16.10;10.45;;;7.80;64.40;;;3.01;100.00;97034.75;5372602;26;20008;-54
2024/04/12 04:22:22;;;;;;;19.08;12.10;;;7.80;64.40;;;2.98;100.00;97038.56;5370796;26;20014;-54
2024/04/12 04:24:52;;;;;;;22.17;12.20;;;7.80;64.50;;;2.98;100.00;97037.75;5372325;26;20076;-51
2024/04/12 04:27:21;;;;;;;17.55;11.02;;;7.70;64.50;;;3.00;100.00;97041.00;5369119;26;20369;-52
2024/04/12 04:29:51;;;;;;;22.50;11.82;;;7.70;64.60;;;2.99;100.00;97040.19;5360811;26;20370;-55
2024/04/12 04:32:21;;;;;;;25.38;12.10;;;7.70;64.60;;;2.97;100.00;97044.81;5370527;26;20018;-55
2024/04/12 04:35:08;;;;;;;18.73;11.95;;;7.70;64.60;;;2.94;100.00;97039.91;5370667;26;20003;-57
2024/04/12 04:37:38;;;;;;;22.02;12.13;;;7.70;64.70;;;2.98;100.00;97035.13;5359451;26;20512;-55
2024/04/12 04:40:11;;;;;;;25.48;13.27;;;7.70;64.70;;;3.01;100.00;97035.56;5374272;26;20006;-57
2024/04/12 04:42:45;;;;;;;21.90;11.98;;;7.70;64.70;;;3.00;100.00;97035.72;5369249;26;20077;-57
2024/04/12 04:45:17;;;;;;;24.95;13.50;;;7.70;64.80;;;3.04;100.00;97039.66;5369297;26;20045;-57
2024/04/12 04:47:45;;;;;;;23.15;12.75;;;7.70;64.80;;;3.03;100.00;97039.81;5366667;26;20045;-52
2024/04/12 04:50:16;;;;;;;22.17;13.90;;;7.70;64.80;;;3.03;100.00;97045.91;5361063;26;20085;-52
2024/04/12 04:52:44;;;;;;;23.85;12.95;;;7.80;65.00;;;3.09;100.00;97045.19;5368904;26;20024;-50
2024/04/12 04:55:13;;;;;;;24.52;13.43;;;7.80;65.00;;;3.12;100.00;97046.63;5365952;26;20551;-57
2024/04/12 04:57:54;;;;;;;33.55;13.50;;;7.80;65.00;;;3.12;100.00;97044.00;5368105;26;20015;-57
2024/04/12 05:00:22;;;;;;;18.35;11.50;;;7.80;64.30;;;3.08;100.00;97040.91;5365815;26;20008;-54
2024/04/12 05:02:53;;;;;;;22.42;12.45;;;7.90;65.00;;;3.11;100.00;97048.47;5365861;26;20003;-57
2024/04/12 05:05:23;;;;;;;20.75;13.00;;;7.80;64.90;;;3.11;100.00;97045.00;5370081;26;20866;-55
2024/04/12 05:07:52;;;;;;;20.15;12.05;;;7.90;64.90;;;3.11;100.00;97045.81;5366547;26;20007;-57
2024/04/12 05:10:20;;;;;;;25.90;12.90;;;7.90;64.90;;;3.17;100.00;97049.56;5367854;26;20081;-56
2024/04/12 05:12:48;;;;;;;20.88;13.02;;;7.90;64.90;;;3.23;100.00;97047.00;5371024;26;20474;-56
2024/04/12 05:16:00;;;;;;;21.20;12.98;;;8.00;65.00;;;3.28;100.00;97049.06;5371614;26;20109;-55
2024/04/12 05:18:03;;;;;;;18.98;12.20;;;8.00;65.10;;;3.33;100.00;97051.19;5350817;26;20004;-57
2024/04/12 05:20:39;;;;;;;19.83;12.15;;;8.10;65.20;;;3.47;100.00;97053.78;5362759;26;20674;-57
2024/04/12 05:23:15;;;;;;;19.67;12.32;;;8.20;65.30;;;3.64;100.00;97057.03;5369474;26;20008;-56
2024/04/12 05:25:43;;;;;;;24.25;11.80;;;8.30;65.60;;;3.82;100.00;97053.97;5362203;26;20083;-53
2024/04/12 05:28:12;;;;;;;20.77;12.90;;;8.50;65.60;;;3.99;100.00;97057.22;5368530;26;20026;-56
2024/04/12 05:30:42;;;;;;;19.90;12.25;;;8.60;65.60;;;4.18;100.00;97050.53;5376414;26;20007;-54
2024/04/12 05:33:11;;;;;;;19.88;12.02;;;8.80;65.80;;;4.38;100.00;97048.88;5357629;26;20023;-58
2024/04/12 05:35:37;;;;;;;18.85;11.93;;;9.00;65.80;;;4.56;100.00;97047.59;5367732;26;20493;-58
2024/04/12 05:38:07;;;;;;;20.05;11.57;;;9.20;65.80;;;4.74;100.00;97047.97;5363242;26;20374;-55
2024/04/12 05:40:45;;;;;;;17.33;12.00;;;9.40;65.80;;;4.94;100.00;97044.63;5363354;26;20008;-58
2024/04/12 05:43:15;;;;;;;21.65;11.98;;;9.70;66.00;;;5.16;100.00;97046.19;5368465;26;20019;-58
2024/04/12 05:45:44;;;;;;;18.98;11.52;;;10.00;65.80;;;5.35;100.00;97049.94;5361422;26;20535;-53
2024/04/12 05:48:13;;;;;;;17.15;12.07;;;10.20;65.70;;;5.64;100.00;97050.69;5369472;26;20504;-54
2024/04/12 05:50:40;;;;;;;19.45;10.68;;;10.50;65.80;;;5.94;100.00;97046.78;5369542;26;20110;-56
2024/04/12 05:53:11;;;;;;;15.77;10.63;;;10.90;65.80;;;6.30;100.00;97048.28;5357460;26;20005;-55
2024/04/12 05:55:45;;;;;;;15.02;9.48;;;11.20;65.70;;;6.66;100.00;97050.53;5370733;26;20022;-58
2024/04/12 05:58:16;;;;;;;12.00;8.85;;;11.50;65.60;;;7.01;100.00;97054.78;5367792;26;20014;-57
2024/04/12 06:00:42;;;;;;;11.75;8.55;;;11.90;65.40;;;7.33;100.00;97048.63;5368286;26;20451;-58
2024/04/12 06:03:14;;;;;;;14.38;8.23;;;12.30;65.10;;;7.66;100.00;97055.66;5362443;26;20019;-58
2024/04/12 06:05:41;;;;;;;11.20;7.80;;;12.70;64.80;;;7.99;100.00;97050.22;5368885;26;20026;-53
2024/04/12 06:08:07;;;;;;;9.90;7.07;;;13.10;64.30;;;8.33;100.00;97048.16;5364710;26;20326;-55
2024/04/12 06:10:33;;;;;;;9.90;6.93;;;13.50;63.80;;;8.65;100.00;97045.50;5368553;26;20019;-54
2024/04/12 06:13:06;;;;;;;7.68;6.88;;;13.90;63.10;;;8.98;100.00;97043.41;5362483;26;20004;-53
2024/04/12 06:15:36;;;;;;;8.25;6.18;;;14.20;62.40;;;9.26;100.00;97047.44;5368614;26;20000;-58
2024/04/12 06:18:09;;;;;;;8.60;5.57;;;14.70;61.80;;;9.54;100.00;97041.59;5368866;26;20394;-58
2024/04/12 06:20:39;;;;;;;7.13;5.68;;;15.00;61.00;;;9.86;100.00;97044.09;5378185;21;20029;-48
2024/04/12 06:23:12;;;;;;;11.38;5.90;;;15.40;60.40;;;10.13;100.00;97036.56;5365641;26;20010;-50
2024/04/12 06:25:49;;;;;;;10.68;5.97;;;15.80;59.80;;;10.45;99.35;97039.81;5365543;26;20000;-52
2024/04/12 06:28:19;;;;;;;7.72;5.93;;;16.20;59.10;;;10.69;96.11;97043.34;5358752;26;20455;-51
2024/04/12 06:30:52;;;;;;;9.10;6.05;;;16.60;58.60;;;10.91;93.95;97043.63;5362438;26;20040;-48
2024/04/12 06:33:20;;;;;;;;;;;17.00;57.90;;;11.16;91.14;97042.59;5335923;26;20023;-48
2024/04/12 06:35:49;;;;;;;10.52;6.38;;;17.30;57.80;;;11.30;88.91;97039.41;5326320;26;20285;-49
2024/04/12 06:38:25;;;;;;;7.43;6.40;;;17.60;56.90;;;11.48;87.44;97043.00;5328098;26;20008;-51
2024/04/12 06:40:55;;;;;;;9.48;5.78;;;17.80;56.20;;;11.64;85.63;97050.28;5332891;26;20005;-51
2024/04/12 06:43:21;;;;;;;11.98;7.00;;;18.10;55.50;;;11.64;83.66;97049.47;5326827;26;20029;-50
2024/04/12 06:46:08;;;;;;;10.80;6.90;;;18.30;54.90;;;11.78;82.85;97038.31;5332611;26;20004;-53
2024/04/12 06:48:36;;;;;;;11.07;8.50;;;18.60;54.00;;;12.06;80.25;97035.91;5323019;26;20467;-50
2024/04/12 06:51:11;;;;;;;9.38;7.00;;;18.70;53.70;;;12.23;78.82;97042.13;5334405;26;20001;-48
2024/04/12 06:53:44;;;;;;;10.52;5.90;;;18.90;53.20;;;12.44;77.93;97036.09;5332505;26;20005;-48
2024/04/12 06:56:17;;;;;;;9.63;5.50;;;19.10;52.80;;;12.60;76.21;97036.38;5335115;26;20004;-53
2024/04/12 06:58:48;;;;;;;9.82;5.25;;;19.30;52.30;;;12.70;75.97;97028.50;5333217;26;20036;-55
2024/04/12 07:01:21;;;;;;;6.32;4.70;;;19.40;51.90;;;12.85;76.21;97033.28;5338468;26;20478;-52
2024/04/12 07:03:48;;;;;;;5.68;4.20;;;19.60;51.50;;;13.04;75.50;97029.31;5337046;26;20016;-54
2024/04/12 07:06:16;;;;;;;6.72;4.28;;;19.80;51.20;;;13.31;75.68;97024.09;5336343;26;19996;-49
2024/04/12 07:08:51;;;;;;;6.10;4.97;;;20.00;50.90;;;13.67;73.94;97034.47;5337889;26;20005;-53
2024/04/12 07:11:19;;;;;;;6.03;3.70;;;20.20;50.60;;;13.97;71.81;97026.78;5337071;26;20399;-48
2024/04/12 07:13:49;;;;;;;6.90;4.00;;;20.50;50.20;;;14.12;69.47;97021.59;5332878;26;20004;-49
2024/04/12 07:16:18;;;;;;;5.82;4.40;;;20.60;49.70;;;14.40;68.85;97017.06;5341843;26;20014;-48
2024/04/12 07:18:45;;;;;;;5.72;4.45;;;20.80;49.20;;;14.65;68.21;97029.91;5337490;26;20047;-49
2024/04/12 07:21:15;;;;;;;7.85;4.55;;;21.10;48.80;;;14.91;67.22;97036.28;5336634;26;20004;-50
2024/04/12 07:23:46;;;;;;;5.78;4.43;;;21.30;48.20;;;15.22;65.79;97033.84;5335910;26;20479;-54
2024/04/12 07:26:31;;;;;;;7.88;4.40;;;21.50;47.80;;;15.50;63.26;97044.19;5338127;26;20005;-52
2024/04/12 07:29:01;;;;;;;6.20;4.22;;;21.80;47.40;;;15.91;62.03;97049.78;5333735;26;20388;-49
2024/04/12 07:31:30;;;;;;;5.13;4.28;;;22.10;46.50;;;16.06;59.90;97051.75;5336905;26;20023;-49
2024/04/12 07:34:05;;;;;;;5.45;4.35;;;22.40;46.20;;;16.10;60.11;97060.88;5338423;26;20009;-49
2024/04/12 07:36:32;;;;;;;9.98;4.47;;;22.70;45.60;;;16.43;59.52;97072.28;5332964;26;20004;-51
2024/04/12 07:39:03;;;;;;;4.75;4.28;;;23.00;45.20;;;16.70;57.77;97068.56;5340908;26;20012;-48
2024/04/12 07:41:34;;;;;;;7.25;4.25;;;23.20;44.60;;;17.06;58.28;97069.41;5337878;26;20019;-49
2024/04/12 07:44:04;;;;;;;6.03;4.32;;;23.60;44.10;;;17.26;56.62;97063.19;5337974;26;20009;-50
2024/04/12 07:46:33;;;;;;;5.85;3.88;;;23.80;43.60;;;17.57;56.16;97059.38;5334991;26;20023;-51
2024/04/12 07:49:04;;;;;;;4.90;4.15;;;23.90;43.00;;;17.54;56.55;97059.91;5337248;26;20356;-48
2024/04/12 07:51:39;;;;;;;8.60;4.72;;;24.20;43.30;;;17.75;55.63;97059.88;5336522;26;20022;-51
2024/04/12 07:54:11;;;;;;;9.50;4.22;;;24.30;42.40;;;18.12;55.90;97062.19;5341479;26;20004;-50
2024/04/12 07:56:45;;;;;;;7.25;4.68;;;24.60;42.10;;;18.15;54.16;97063.53;5336136;26;20363;-49
2024/04/12 07:59:25;;;;;;;4.47;4.07;;;25.00;41.50;;;18.19;53.73;97061.88;5333707;26;20007;-51
2024/04/12 08:01:52;;;;;;;4.93;4.18;;;25.20;40.80;;;18.32;54.98;97055.88;5335187;26;20015;-54
2024/04/12 08:04:25;;;;;;;4.03;3.65;;;25.40;40.40;;;18.57;52.36;97052.22;5334849;26;21154;-50
2024/04/12 08:06:55;;;;;;;5.90;4.18;;;25.60;40.00;;;18.57;51.83;97063.03;5331141;26;20005;-55
2024/04/12 08:09:42;;;;;;;8.85;4.22;;;25.70;39.40;;;18.43;51.84;97064.75;5330209;26;20036;-52
2024/04/12 08:12:14;;;;;;;6.47;4.03;;;25.70;39.10;;;18.64;50.46;97068.91;5328760;26;20078;-55
2024/04/12 08:14:52;;;;;;;6.90;3.90;;;25.70;38.90;;;18.71;51.16;97076.72;5354454;26;20004;-52
2024/04/12 08:17:39;;;;;;;6.53;3.80;;;25.90;38.40;;;18.89;49.94;97075.25;5327845;26;20016;-49
2024/04/12 08:20:21;;;;;;;5.43;3.88;;;25.90;37.90;;;19.18;49.42;97061.78;5330314;26;20053;-54
2024/04/12 08:22:47;;;;;;;6.60;4.17;;;26.00;37.80;;;19.20;49.33;97062.28;5337875;26;20019;-51
2024/04/12 08:25:17;;;;;;;6.20;3.63;;;25.90;37.80;;;18.94;50.39;97064.41;5332013;26;20005;-54
2024/04/12 08:27:43;;;;;;;5.63;3.70;;;25.90;37.60;;;18.84;49.59;97054.50;5325068;26;20008;-54
2024/04/12 08:30:19;;;;;;;4.22;3.67;;;25.90;37.50;;;19.08;50.26;97051.84;5330442;26;20362;-52
2024/04/12 08:32:48;;;;;;;5.40;3.72;;;25.80;37.40;;;18.83;49.56;97047.47;5330057;26;20439;-55
2024/04/12 08:35:19;;;;;;;7.70;3.83;;;25.80;37.40;;;18.78;49.80;97042.13;5324965;26;20014;-55
2024/04/12 08:37:47;;;;;;;7.13;3.75;;;25.90;37.10;;;19.06;49.19;97048.66;5327975;26;20050;-54
2024/04/12 08:40:13;;;;;;;7.95;3.83;;;26.00;37.10;;;19.24;48.99;97038.22;5331022;26;20008;-55
2024/04/12 08:42:40;;;;;;;7.22;3.78;;;26.20;36.80;;;19.50;48.72;97036.09;5328941;26;20458;-56
2024/04/12 08:45:14;;;;;;;7.80;3.97;;;26.40;36.60;;;19.82;48.80;97030.09;5324735;26;20004;-52
2024/04/12 08:48:01;;;;;;;6.55;4.25;;;26.60;36.40;;;20.23;48.22;97030.38;5328407;26;20004;-49
2024/04/12 08:50:31;;;;;;;6.30;4.32;;;26.90;36.30;;;20.50;46.38;97034.34;5335427;26;20072;-51
2024/04/12 08:53:04;;;;;;;6.53;4.43;;;27.10;36.00;;;20.73;46.55;97033.47;5322429;26;20060;-51
2024/04/12 08:55:30;;;;;;;5.60;4.50;;;27.40;35.80;;;20.73;45.69;97017.22;5318161;26;20009;-50
2024/04/12 08:58:01;;;;;;;6.00;4.95;;;27.60;35.40;;;21.02;45.08;97021.63;5314547;26;20001;-54
2024/04/12 09:00:33;;;;;;;7.32;4.68;;;27.80;34.90;;;21.43;44.74;97029.06;5328639;26;20471;-54
2024/04/12 09:03:10;;;;;;;6.28;4.50;;;28.00;34.70;;;21.60;44.30;97029.28;5319254;26;20348;-49
2024/04/12 09:05:40;;;;;;;5.85;5.25;;;28.20;34.60;;;21.52;44.00;97037.31;5324060;26;20091;-52
2024/04/12 09:08:06;;;;;;;6.05;4.80;;;28.50;34.20;;;21.66;43.76;97043.56;5324287;26;20022;-54
2024/04/12 09:10:36;;;;;;;9.73;5.10;;;28.60;34.50;;;21.77;43.27;97042.25;5313899;26;20013;-51
2024/04/12 09:13:15;;;;;;;6.60;4.90;;;28.80;33.50;;;21.88;43.81;97038.25;5355787;26;20486;-52
2024/04/12 09:15:45;;;;;;;5.10;4.60;;;29.00;33.30;;;21.82;43.21;97031.31;5316286;26;20021;-58
2024/04/12 09:18:15;;;;;;;7.40;4.57;;;29.30;32.90;;;21.99;43.85;97041.53;5326658;26;20372;-55
2024/04/12 09:20:45;;;;;;;6.00;4.95;;;29.40;32.70;;;22.17;43.50;97039.84;5323863;26;20016;-53
2024/04/12 09:23:15;;;;;;;10.02;4.80;;;29.60;32.60;;;22.63;42.53;97049.72;5334583;26;20019;-56
2024/04/12 09:25:55;;;;;;;6.10;4.93;;;29.80;32.40;;;23.24;41.77;97048.25;5352980;26;20008;-57
2024/04/12 09:28:26;;;;;;;5.18;4.68;;;30.10;32.20;;;23.59;40.21;97053.06;5324231;26;20052;-56
2024/04/12 09:33:50;;;;;;;7.10;4.60;;;30.60;31.60;;;23.92;39.47;97051.66;5329888;26;20080;-53
2024/04/12 09:36:55;;;;;;;5.95;4.95;;;30.90;31.40;;;23.99;39.22;97057.44;5311338;26;20009;-57
2024/04/12 09:39:24;;;;;;;8.68;5.40;;;31.10;31.00;;;23.89;38.85;97048.75;5328098;26;20074;-56
2024/04/12 09:41:56;;;;;;;7.97;5.00;;;31.20;30.50;;;23.98;39.16;97039.50;5326280;26;20406;-50
2024/04/12 09:44:27;;;;;;;;;;;31.40;30.20;;;24.45;38.48;97047.16;5335356;26;20074;-51
2024/04/12 10:37:59;;;;;;;8.68;5.88;;;33.60;27.80;;;25.86;34.91;96981.97;5330828;26;20095;-60
2024/04/12 10:40:30;;;;;;;8.50;6.53;;;33.70;27.80;;;25.88;35.26;96981.63;5335656;26;20012;-60
2024/04/12 10:42:58;;;;;;;8.27;6.20;;;33.70;27.50;;;25.85;35.01;96977.63;5332455;26;20483;-60
2024/04/12 10:45:29;;;;;;;10.00;6.70;;;33.80;27.40;;;26.15;35.38;96980.34;5335973;26;20016;-60
2024/04/12 10:47:56;;;;;;;8.20;6.63;;;33.80;27.20;;;26.52;34.69;96981.41;5335241;26;20048;-60
2024/04/12 10:50:24;;;;;;;10.18;6.53;;;33.90;27.20;;;26.47;33.79;96976.09;5337382;26;20480;-60
2024/04/12 10:52:51;;;;;;;7.75;6.53;;;34.10;27.00;;;26.61;34.00;96970.41;5337481;26;20136;-60
2024/04/12 10:55:19;;;;;;;8.73;7.00;;;34.20;26.90;;;26.65;33.77;96971.31;5334689;26;20004;-60
2024/04/12 10:57:49;;;;;;;9.70;6.57;;;34.40;26.80;;;26.80;33.39;96969.91;5336575;26;20013;-59
2024/04/12 11:00:27;;;;;;;8.88;7.07;;;34.50;27.10;;;26.93;33.17;96961.41;5336799;26;20008;-60
2024/04/12 11:02:59;;;;;;;8.95;6.50;;;34.70;26.60;;;26.89;33.70;96967.88;5360895;26;20019;-60
2024/04/12 11:08:02;;;;;;;7.75;6.63;;;35.00;26.30;;;26.86;32.50;96957.63;5338105;26;20004;-60
2024/04/12 11:10:40;;;;;;;10.45;6.38;;;35.00;25.90;;;27.12;32.18;96958.16;5334594;26;20012;-60
2024/04/12 11:13:16;;;;;;;11.65;6.53;;;35.00;25.80;;;27.23;31.92;96953.06;5338111;26;20074;-59
2024/04/12 11:32:18;;;;;;;7.43;6.65;;;36.00;25.00;;;27.87;30.46;96949.69;5333738;26;20024;-57
2024/04/12 11:34:45;;;;;;;7.82;6.50;;;36.20;24.90;;;27.72;31.28;96952.31;5331983;26;20462;-55
2024/04/12 11:37:13;;;;;;;8.93;6.90;;;36.20;24.80;;;26.94;33.72;96937.59;5330311;26;20039;-55
2024/04/12 11:39:41;;;;;;;7.65;6.60;;;36.20;24.60;;;27.11;33.85;96942.88;5330778;26;20463;-58
2024/04/12 11:42:18;;;;;;;7.38;5.85;;;36.00;24.70;;;26.67;34.39;96939.81;5331491;26;20094;-55
2024/04/12 11:44:47;;;;;;;8.98;6.15;;;35.90;24.80;;;27.16;32.28;96939.94;5359956;26;20001;-60
2024/04/12 11:47:16;;;;;;;7.53;6.82;;;35.90;24.80;;;27.20;31.73;96934.59;5328401;26;20103;-60
2024/04/12 11:49:45;;;;;;;9.60;7.10;;;35.90;24.60;;;27.13;32.91;96934.31;5332990;26;20482;-59
2024/04/12 11:52:15;;;;;;;7.97;7.10;;;35.80;24.60;;;26.89;32.53;96927.69;5331992;26;20336;-59
2024/04/12 11:54:58;;;;;;;7.78;6.10;;;35.60;24.40;;;27.02;33.69;96924.97;5330246;26;20004;-58